Time;durP1;ratioP1;P1;durP2;ratioP2;P2;SDS_P1;SDS_P2;PMS_P1;PMS_P2;Temp;Humidity;BMP_temperature;BMP_pressure;BME280_temperature;BME280_humidity;BME280_pressure;Samples;Min_cycle;Max_cycle;Signal;HPM_P1;HPM_P2
2022/09/21 00:01:20;;;;;;;;;3.33;3.00;;;;;17.34;54.51;155410.41;4993058;28;45306;-72
2022/09/21 00:03:47;;;;;;;;;3.00;3.00;;;;;17.34;54.62;155410.41;4993191;28;45436;-72
2022/09/21 00:06:18;;;;;;;;;2.67;2.67;;;;;17.25;54.15;155389.22;4989415;28;45471;-72
2022/09/21 00:08:44;;;;;;;;;2.67;2.00;;;;;17.35;54.23;155414.41;4972460;28;47205;-72
2022/09/21 00:11:24;;;;;;;;;2.00;2.00;;;;;17.36;53.82;154714.09;4989972;28;47394;-72
2022/09/21 00:13:54;;;;;;;;;3.33;3.00;;;;;17.41;53.57;151234.19;4990180;28;45651;-72
2022/09/21 00:16:20;;;;;;;;;3.00;3.00;;;;;17.43;54.11;151589.81;4973355;28;45357;-71
2022/09/21 00:18:46;;;;;;;;;2.33;2.00;;;;;17.45;53.87;146708.88;4991254;28;46277;-72
2022/09/21 00:21:14;;;;;;;;;3.00;2.00;;;;;17.43;53.51;146703.88;4992496;27;45417;-71
2022/09/21 00:23:40;;;;;;;;;3.00;3.00;;;;;17.40;53.88;155426.31;4990542;27;45896;-72
2022/09/21 00:26:15;;;;;;;;;5.00;4.67;;;;;17.37;54.64;155418.34;4991334;28;45271;-71
2022/09/21 00:28:41;;;;;;;;;7.67;5.67;;;;;17.35;54.96;155414.41;4992448;28;46436;-72
2022/09/21 00:31:11;;;;;;;;;5.67;4.00;;;;;17.34;54.69;155410.41;4995971;28;45441;-72
2022/09/21 00:33:37;;;;;;;;;5.67;5.67;;;;;17.27;55.04;155393.22;4971686;28;45594;-72
2022/09/21 00:36:04;;;;;;;;;6.67;6.67;;;;;17.31;55.31;155403.81;4991791;28;45494;-72
2022/09/21 00:38:31;;;;;;;;;13.00;9.00;;;;;17.27;55.58;155394.53;4990000;28;47235;-71
2022/09/21 00:40:56;;;;;;;;;8.33;8.33;;;;;17.27;56.13;155394.53;4992582;28;45479;-71
2022/09/21 00:43:22;;;;;;;;;13.00;9.67;;;;;17.21;55.98;155377.38;4975679;28;45389;-72
2022/09/21 00:45:51;;;;;;;;;10.00;8.67;;;;;17.21;56.30;155377.38;4976538;28;45635;-94
2022/09/21 00:48:16;;;;;;;;;10.67;9.00;;;;;17.16;56.52;155364.13;4988541;28;46279;-93
2022/09/21 00:50:48;;;;;;;;;13.33;9.33;;;;;17.13;56.87;155356.19;4985939;28;45523;-95
2022/09/21 00:53:14;;;;;;;;;9.33;9.33;;;;;17.09;56.99;155348.28;4992709;28;45571;-94
2022/09/21 00:55:45;;;;;;;;;10.33;9.67;;;;;17.01;57.02;155325.78;4973146;28;45491;-94
2022/09/21 00:58:18;;;;;;;;;15.67;11.00;;;;;17.04;57.36;155333.72;4991550;28;46079;-94
2022/09/21 01:00:43;;;;;;;;;11.00;11.00;;;;;16.85;57.48;155284.78;4989681;28;45527;-92
2022/09/21 01:03:11;;;;;;;;;10.33;10.33;;;;;16.87;57.57;155290.09;4992986;28;45480;-93
2022/09/21 01:05:36;;;;;;;;;10.33;10.33;;;;;16.94;57.73;155307.28;4987277;28;45365;-94
2022/09/21 01:08:05;;;;;;;;;10.67;10.67;;;;;16.89;57.80;155295.38;4992906;28;45330;-94
2022/09/21 01:10:46;;;;;;;;;11.00;10.00;;;;;16.85;57.80;155284.78;4994699;28;46038;-93
2022/09/21 01:13:24;;;;;;;;;13.50;11.50;;;;;16.84;57.96;155282.16;4975442;28;45483;-93
2022/09/21 01:16:06;;;;;;;;;11.67;11.67;;;;;16.75;58.04;155258.31;4991467;28;45364;-93
2022/09/21 01:18:50;;;;;;;;;8.67;8.67;;;;;16.77;58.26;155264.94;4974444;28;47708;-93
2022/09/21 01:21:22;;;;;;;;;10.33;10.33;;;;;16.77;58.61;155264.94;4970165;28;45550;-92
2022/09/21 01:24:04;;;;;;;;;11.33;9.33;;;;;16.76;58.41;155262.25;4983101;28;45568;-93
2022/09/21 01:26:43;;;;;;;;;9.00;9.00;;;;;16.72;58.43;155251.72;4983881;28;46862;-93
2022/09/21 01:29:20;;;;;;;;;12.33;10.33;;;;;16.68;58.68;155241.13;4990250;28;46930;-93
2022/09/21 01:31:50;;;;;;;;;11.67;8.67;;;;;16.65;58.41;155233.22;4986751;28;45650;-93
2022/09/21 01:34:29;;;;;;;;;8.67;8.67;;;;;16.61;58.99;155222.63;4992383;28;45421;-93
2022/09/21 01:36:59;;;;;;;;;9.67;8.33;;;;;16.55;58.92;155208.13;4982360;28;45539;-93
2022/09/21 01:39:26;;;;;;;;;11.33;10.33;;;;;16.52;59.19;155198.84;4973635;28;47375;-94
2022/09/21 01:41:53;;;;;;;;;9.00;9.00;;;;;16.45;59.09;155182.94;4984324;28;45455;-86
2022/09/21 01:44:23;;;;;;;;;10.67;9.33;;;;;16.51;59.25;155196.22;4987620;28;45400;-93
2022/09/21 01:46:50;;;;;;;;;9.33;9.33;;;;;16.49;59.23;155190.91;4992038;28;45286;-93
2022/09/21 01:49:28;;;;;;;;;9.67;9.67;;;;;16.22;59.01;155122.16;4988263;28;45596;-93
2022/09/21 01:51:59;;;;;;;;;9.00;8.67;;;;;16.43;59.19;155177.66;4987879;28;45439;-92
2022/09/21 01:54:33;;;;;;;;;12.00;10.33;;;;;16.40;59.35;155168.44;4986564;28;45614;-91
2022/09/21 01:57:13;;;;;;;;;10.67;9.67;;;;;16.37;59.25;155161.84;4985627;27;45953;-91
2022/09/21 01:59:53;;;;;;;;;10.67;10.67;;;;;16.37;59.03;155160.53;4988985;28;46317;-91
2022/09/21 02:02:34;;;;;;;;;9.67;9.67;;;;;16.26;59.18;155132.75;4990056;28;45579;-90
2022/09/21 02:05:01;;;;;;;;;11.67;9.33;;;;;16.28;59.17;155138.03;4986121;28;45455;-92
2022/09/21 02:07:27;;;;;;;;;9.33;9.33;;;;;16.33;59.37;155151.25;4990690;28;45423;-91
2022/09/21 02:09:55;;;;;;;;;6.00;5.33;;;;;16.27;59.58;155135.38;4973362;27;48278;-90
2022/09/21 02:12:21;;;;;;;;;8.33;7.33;;;;;16.25;59.44;155131.44;4990704;28;45420;-87
2022/09/21 02:14:54;;;;;;;;;8.00;8.00;;;;;16.32;59.27;155147.28;4973179;28;45497;-87
2022/09/21 02:17:25;;;;;;;;;10.33;9.33;;;;;16.29;59.43;155139.34;4990677;28;45373;-87
2022/09/21 02:20:02;;;;;;;;;10.00;7.33;;;;;16.28;59.43;155138.03;4972558;28;46144;-87
2022/09/21 02:22:30;;;;;;;;;9.67;9.67;;;;;16.25;59.25;155131.44;4970042;28;45588;-87
2022/09/21 02:25:09;;;;;;;;;11.00;10.33;;;;;16.23;59.44;155126.16;4988925;28;45508;-87
2022/09/21 02:27:54;;;;;;;;;11.67;10.00;;;;;16.12;59.31;155097.06;4989743;28;46676;-87
2022/09/21 02:30:24;;;;;;;;;8.00;8.00;;;;;16.22;59.42;155123.53;4989808;27;46200;-87
2022/09/21 02:33:10;;;;;;;;;9.33;9.33;;;;;16.21;59.14;155120.84;4986780;28;45687;-87
2022/09/21 02:36:03;;;;;;;;;9.67;9.67;;;;;16.16;59.66;155106.34;4990677;28;45301;-87
2022/09/21 02:38:37;;;;;;;;;8.33;8.33;;;;;16.16;59.51;155106.34;4987597;28;45452;-87
2022/09/21 02:41:18;;;;;;;;;9.33;9.33;;;;;16.11;59.37;155094.44;4991868;28;47154;-86
2022/09/21 02:44:09;;;;;;;;;8.00;8.00;;;;;16.03;59.53;155074.59;4994668;28;45490;-72
2022/09/21 02:46:42;;;;;;;;;11.33;9.33;;;;;15.96;59.86;155056.09;4968465;27;45514;-71
2022/09/21 02:49:15;;;;;;;;;9.00;9.00;;;;;15.86;59.85;155028.38;4989566;27;45542;-72
2022/09/21 02:51:52;;;;;;;;;8.67;8.00;;;;;15.99;59.73;155062.69;4992847;28;45677;-71
2022/09/21 02:54:24;;;;;;;;;7.67;7.67;;;;;15.95;59.75;155053.47;4993082;28;45435;-71
2022/09/21 02:56:52;;;;;;;;;11.00;9.67;;;;;15.95;59.77;155053.47;4975260;28;45503;-71
2022/09/21 02:59:21;;;;;;;;;9.33;9.33;;;;;15.94;59.87;155050.81;4992005;28;45368;-72
2022/09/21 03:01:46;;;;;;;;;10.67;9.33;;;;;15.95;59.89;155053.47;4991196;28;46358;-71
2022/09/21 03:04:12;;;;;;;;;8.00;8.00;;;;;15.95;59.91;155052.16;4992209;28;45218;-71
2022/09/21 03:06:37;;;;;;;;;9.33;9.33;;;;;15.92;59.85;155045.56;4992606;28;45410;-71
2022/09/21 03:09:03;;;;;;;;;7.67;7.67;;;;;15.93;59.89;155046.88;4991188;28;45471;-71
2022/09/21 03:11:28;;;;;;;;;9.33;8.00;;;;;15.90;59.88;155040.28;4992045;28;46142;-72
2022/09/21 03:13:53;;;;;;;;;6.67;6.67;;;;;15.92;59.99;155044.22;4974106;28;45416;-71
2022/09/21 03:16:20;;;;;;;;;10.33;8.00;;;;;15.90;59.37;155038.97;4993451;28;45499;-72
2022/09/21 03:18:45;;;;;;;;;9.67;8.00;;;;;15.85;59.82;155027.06;4993365;28;45448;-71
2022/09/21 03:21:12;;;;;;;;;9.67;8.00;;;;;15.82;59.98;155020.44;4991138;27;46096;-72
2022/09/21 03:23:38;;;;;;;;;14.00;10.33;;;;;15.80;59.92;155015.19;4992874;28;45377;-71
2022/09/21 03:26:04;;;;;;;;;8.00;7.00;;;;;15.78;59.89;155008.53;4992312;28;45511;-72
2022/09/21 03:28:29;;;;;;;;;8.67;7.00;;;;;15.75;60.00;155001.94;4992560;27;45290;-72
2022/09/21 03:30:54;;;;;;;;;9.67;9.67;;;;;15.74;60.36;154999.31;4989665;28;46575;-72
2022/09/21 03:33:20;;;;;;;;;8.00;8.00;;;;;15.63;60.32;154970.19;4989728;28;45547;-72
2022/09/21 03:35:49;;;;;;;;;10.00;8.67;;;;;15.67;60.05;154979.47;4992491;28;45462;-72
2022/09/21 03:38:15;;;;;;;;;10.33;9.00;;;;;15.65;60.39;154975.47;4972985;28;46778;-71
2022/09/21 03:40:45;;;;;;;;;11.00;9.00;;;;;15.61;60.50;154964.91;4990134;28;45506;-72
2022/09/21 03:43:10;;;;;;;;;9.67;8.67;;;;;15.64;60.24;154972.88;4993581;28;45499;-72
2022/09/21 03:45:37;;;;;;;;;10.67;9.00;;;;;15.59;60.02;154960.97;4991398;28;45494;-72
2022/09/21 03:48:03;;;;;;;;;10.67;9.00;;;;;15.62;60.36;154968.88;4993615;28;45452;-71
2022/09/21 03:50:28;;;;;;;;;14.00;10.67;;;;;15.59;60.15;154960.97;4976097;28;46221;-72
2022/09/21 03:52:55;;;;;;;;;7.67;7.67;;;;;15.53;60.19;154943.81;4992837;28;45373;-71
2022/09/21 03:55:21;;;;;;;;;9.00;9.00;;;;;15.48;60.48;154930.59;4994584;28;45347;-72
2022/09/21 03:57:47;;;;;;;;;9.33;8.33;;;;;15.54;59.98;154947.72;4978811;28;45382;-71
2022/09/21 04:00:13;;;;;;;;;8.33;8.33;;;;;15.53;60.12;154945.09;4991047;28;46066;-72
2022/09/21 04:02:42;;;;;;;;;9.67;9.00;;;;;15.48;60.25;154930.59;4990453;28;45573;-71
2022/09/21 04:05:09;;;;;;;;;10.67;8.33;;;;;15.51;60.15;154938.50;4972522;28;46286;-71
2022/09/21 04:07:35;;;;;;;;;11.00;11.00;;;;;15.45;60.14;154923.97;4977977;28;46604;-71
2022/09/21 04:10:03;;;;;;;;;12.67;8.67;;;;;15.43;60.17;154918.72;4993148;28;47188;-71
2022/09/21 04:12:28;;;;;;;;;9.33;8.67;;;;;15.33;60.16;154893.59;4988428;28;46161;-71
2022/09/21 04:14:54;;;;;;;;;13.00;8.33;;;;;15.35;60.40;154897.56;4991231;28;45690;-71
2022/09/21 04:17:19;;;;;;;;;9.33;8.00;;;;;15.23;60.41;154865.88;4991530;28;45487;-71
2022/09/21 04:19:44;;;;;;;;;6.00;5.33;;;;;15.33;60.46;154892.28;4975094;28;45307;-71
2022/09/21 04:22:11;;;;;;;;;8.33;8.33;;;;;15.30;60.55;154885.66;4990786;28;45618;-75
2022/09/21 04:24:39;;;;;;;;;9.33;6.67;;;;;15.18;60.37;154854.00;4996588;28;45500;-71
2022/09/21 04:27:05;;;;;;;;;9.00;9.00;;;;;15.23;60.46;154867.19;4990042;28;45596;-71
2022/09/21 04:29:30;;;;;;;;;11.67;8.67;;;;;15.20;60.58;154860.59;4970208;28;46101;-70
2022/09/21 04:31:56;;;;;;;;;7.00;6.67;;;;;14.99;60.42;154805.16;4986102;28;47498;-69
2022/09/21 04:34:22;;;;;;;;;10.33;8.33;;;;;15.17;60.99;154851.31;4990362;28;45483;-69
2022/09/21 04:36:47;;;;;;;;;9.67;8.00;;;;;15.15;60.94;154846.09;4976147;28;45451;-69
2022/09/21 04:39:13;;;;;;;;;12.00;10.67;;;;;15.14;61.36;154844.72;4992603;28;46138;-69
2022/09/21 04:41:38;;;;;;;;;7.00;7.00;;;;;15.15;61.11;154846.09;4989651;27;45499;-69
2022/09/21 04:44:04;;;;;;;;;8.00;7.33;;;;;15.07;60.80;154824.94;4993500;28;45480;-89
2022/09/21 04:46:29;;;;;;;;;12.33;10.00;;;;;15.13;60.91;154842.09;4992445;28;45310;-90
2022/09/21 04:48:54;;;;;;;;;10.00;8.67;;;;;15.13;61.00;154842.09;4988730;27;46318;-92
2022/09/21 04:51:20;;;;;;;;;6.67;6.00;;;;;15.10;61.02;154832.84;4991481;28;45390;-79
2022/09/21 04:53:45;;;;;;;;;12.00;11.33;;;;;15.02;61.13;154813.06;4992478;28;45816;-91
2022/09/21 04:56:14;;;;;;;;;7.33;7.33;;;;;15.06;61.07;154822.31;4983527;28;45527;-92
2022/09/21 04:58:39;;;;;;;;;12.33;10.67;;;;;15.06;61.11;154822.31;4977076;28;48207;-92
2022/09/21 05:01:06;;;;;;;;;9.33;7.67;;;;;14.97;61.06;154801.16;4992239;28;45355;-92
2022/09/21 05:03:32;;;;;;;;;8.33;8.33;;;;;15.02;60.84;154811.75;4985160;28;45545;-93
2022/09/21 05:05:57;;;;;;;;;10.67;9.00;;;;;15.01;60.85;154809.06;4982370;28;45748;-94
2022/09/21 05:11:17;;;;;;;;;11.00;10.00;;;;;15.05;60.93;154820.97;4993689;28;45488;-94
2022/09/21 05:13:43;;;;;;;;;13.67;12.00;;;;;15.04;61.17;154818.34;4978011;28;45313;-92
2022/09/21 05:16:09;;;;;;;;;10.00;10.00;;;;;15.02;61.04;154813.06;4995217;28;45299;-94
2022/09/21 05:18:34;;;;;;;;;13.00;11.00;;;;;15.02;61.17;154811.75;4982817;28;46080;-91
2022/09/21 05:21:01;;;;;;;;;10.67;9.67;;;;;14.96;61.41;154798.56;4992111;28;45345;-95
2022/09/21 05:23:28;;;;;;;;;11.33;8.00;;;;;15.00;61.26;154807.78;4976561;28;45529;-80
2022/09/21 05:25:55;;;;;;;;;10.33;10.33;;;;;14.95;61.21;154794.56;4965107;28;45492;-85
2022/09/21 05:28:21;;;;;;;;;8.67;8.00;;;;;14.99;61.19;154805.16;4982204;28;47224;-79
2022/09/21 05:31:24;;;;;;;;;12.67;10.33;;;;;14.97;61.34;154799.88;4979810;28;45339;-94
2022/09/21 05:34:02;;;;;;;;;11.00;10.33;;;;;14.94;61.26;154791.97;4984361;28;45440;-77
2022/09/21 05:36:47;;;;;;;;;7.00;7.00;;;;;14.85;61.56;154769.50;4992263;28;45532;-76
2022/09/21 05:39:13;;;;;;;;;7.67;7.67;;;;;14.93;61.48;154789.28;4989169;28;45432;-79
2022/09/21 05:41:38;;;;;;;;;12.33;11.33;;;;;14.92;61.70;154786.66;4974532;28;45507;-75
2022/09/21 05:44:04;;;;;;;;;7.67;7.67;;;;;14.91;61.52;154784.00;4979772;28;45468;-70
2022/09/21 05:46:47;;;;;;;;;12.00;10.67;;;;;14.88;61.77;154776.09;4959100;28;45689;-70
2022/09/21 05:49:18;;;;;;;;;10.33;10.33;;;;;14.94;61.65;154793.25;4963315;28;47427;-70
2022/09/21 05:52:00;;;;;;;;;10.33;9.00;;;;;14.95;61.83;154794.56;4965706;28;45463;-70
2022/09/21 05:54:25;;;;;;;;;10.00;9.00;;;;;14.96;61.85;154798.56;4979380;28;45274;-70
2022/09/21 05:57:29;;;;;;;;;11.33;9.00;;;;;14.97;61.81;154801.16;4983095;28;45348;-70
2022/09/21 05:59:57;;;;;;;;;12.67;8.00;;;;;15.02;61.57;154813.06;4979111;28;46099;-70
2022/09/21 06:02:36;;;;;;;;;10.67;10.00;;;;;15.01;61.80;154809.06;4979259;28;45507;-70
2022/09/21 06:05:09;;;;;;;;;7.33;5.33;;;;;15.00;61.80;154807.78;4981892;28;45520;-70
2022/09/21 06:07:34;;;;;;;;;9.67;8.00;;;;;15.00;61.93;154807.78;4981610;28;45480;-70
2022/09/21 06:09:59;;;;;;;;;7.00;7.00;;;;;15.01;61.72;154810.44;4965499;28;47360;-70
2022/09/21 06:12:25;;;;;;;;;9.67;7.00;;;;;14.92;61.94;154787.97;4995637;28;45944;-70
2022/09/21 06:14:50;;;;;;;;;8.67;8.00;;;;;14.99;62.03;154805.16;4967221;28;45529;-70
2022/09/21 06:17:15;;;;;;;;;10.00;9.00;;;;;14.96;62.12;154798.56;4994159;28;45600;-70
2022/09/21 06:19:41;;;;;;;;;14.00;12.67;;;;;14.99;62.03;154805.16;4995380;28;46094;-70
2022/09/21 06:22:06;;;;;;;;;9.00;9.00;;;;;15.05;62.41;154819.66;4995758;28;45554;-70
2022/09/21 06:24:31;;;;;;;;;13.00;8.67;;;;;14.99;62.33;154806.47;4996097;28;45545;-70
2022/09/21 06:26:57;;;;;;;;;9.33;9.33;;;;;15.09;62.37;154830.22;4993634;28;45308;-70
2022/09/21 06:29:22;;;;;;;;;8.00;7.67;;;;;15.09;62.32;154831.53;4978510;28;45583;-70
2022/09/21 06:31:50;;;;;;;;;11.33;8.67;;;;;15.02;62.68;154813.06;4995948;28;45418;-70
2022/09/21 06:34:16;;;;;;;;;8.67;7.33;;;;;15.13;62.54;154842.09;4975764;28;45397;-70
2022/09/21 06:36:43;;;;;;;;;8.33;8.00;;;;;15.18;62.56;154854.00;4994049;28;45492;-70
2022/09/21 06:39:08;;;;;;;;;12.67;9.33;;;;;15.20;62.62;154860.59;4996586;28;45440;-70
2022/09/21 06:41:33;;;;;;;;;11.67;8.67;;;;;15.25;62.34;154872.47;4996358;28;45387;-70
2022/09/21 06:43:59;;;;;;;;;8.67;7.00;;;;;15.24;62.46;154868.50;4996362;28;45396;-75
2022/09/21 06:46:24;;;;;;;;;14.00;11.33;;;;;15.25;62.88;154871.16;4996629;28;45400;-75
2022/09/21 06:48:49;;;;;;;;;11.33;9.33;;;;;15.36;62.53;154900.22;4996265;28;45332;-75
2022/09/21 06:51:15;;;;;;;;;11.33;7.33;;;;;15.39;62.49;154908.13;4995895;28;45406;-75
2022/09/21 06:53:40;;;;;;;;;12.00;11.33;;;;;15.45;62.63;154922.66;4996383;28;45425;-75
2022/09/21 06:56:07;;;;;;;;;10.00;10.00;;;;;15.37;62.36;154904.16;4996704;28;45319;-75
2022/09/21 06:58:34;;;;;;;;;12.33;10.67;;;;;15.43;62.41;154917.34;4995865;28;47237;-75
2022/09/21 07:01:11;;;;;;;;;10.33;10.33;;;;;15.54;62.25;154947.72;4990583;28;45443;-74
2022/09/21 07:03:38;;;;;;;;;6.67;6.67;;;;;15.61;62.72;154964.91;4990394;28;45405;-75
2022/09/21 07:06:04;;;;;;;;;12.33;9.00;;;;;15.68;62.27;154982.09;4996541;28;45495;-75
2022/09/21 07:08:30;;;;;;;;;14.00;10.33;;;;;15.72;62.14;154992.72;4995847;28;48080;-75
2022/09/21 07:10:59;;;;;;;;;10.67;9.00;;;;;15.74;62.09;154999.31;4995724;28;45380;-75
2022/09/21 07:13:26;;;;;;;;;12.33;12.33;;;;;15.89;62.05;155036.31;4996541;28;45256;-75
2022/09/21 07:15:51;;;;;;;;;10.67;9.33;;;;;15.97;61.67;155058.78;4996193;28;45416;-75
2022/09/21 07:18:16;;;;;;;;;8.33;8.33;;;;;16.08;61.82;155085.19;4975091;28;46200;-75
2022/09/21 07:20:42;;;;;;;;;14.00;11.67;;;;;16.15;61.53;155103.69;4989798;28;45342;-75
2022/09/21 07:23:16;;;;;;;;;10.00;9.67;;;;;16.22;61.37;155122.16;4996123;28;45284;-75
2022/09/21 07:25:43;;;;;;;;;10.67;7.00;;;;;16.24;60.81;155128.78;4975430;28;45528;-75
2022/09/21 07:28:08;;;;;;;;;9.67;9.67;;;;;16.37;61.14;155161.84;4995678;28;46443;-75
2022/09/21 07:30:35;;;;;;;;;9.67;8.33;;;;;16.49;60.67;155192.22;4995709;28;45534;-75
2022/09/21 07:33:02;;;;;;;;;8.67;7.33;;;;;16.38;60.50;155163.16;4995922;28;45328;-75
2022/09/21 07:35:27;;;;;;;;;9.67;8.00;;;;;16.57;60.44;155212.03;4987918;28;46338;-75
2022/09/21 07:37:55;;;;;;;;;9.00;5.00;;;;;16.80;60.06;155271.59;4984596;28;47611;-75
2022/09/21 07:40:20;;;;;;;;;7.67;6.67;;;;;16.89;59.30;155295.38;4978258;28;45508;-75
2022/09/21 07:42:46;;;;;;;;;10.67;8.33;;;;;16.93;58.72;155305.97;4996010;28;45374;-75
2022/09/21 07:45:11;;;;;;;;;7.67;7.67;;;;;17.03;58.89;155331.09;4978283;28;45393;-70
2022/09/21 07:47:36;;;;;;;;;5.00;5.00;;;;;17.06;58.65;155340.31;4995321;28;45542;-70
2022/09/21 07:50:02;;;;;;;;;7.00;7.00;;;;;17.04;58.38;155333.72;4995611;28;45320;-70
2022/09/21 07:52:27;;;;;;;;;9.00;8.00;;;;;17.18;58.08;155369.41;5006999;28;45427;-70
2022/09/21 07:54:52;;;;;;;;;8.67;6.33;;;;;17.21;57.86;155378.69;4995897;28;45369;-70
2022/09/21 08:00:03;;;;;;;;;8.67;7.33;;;;;17.37;58.36;155419.69;4995477;28;45350;-70
2022/09/21 08:02:28;;;;;;;;;8.00;8.00;;;;;17.46;57.61;155442.16;4995976;28;45437;-70
2022/09/21 08:04:54;;;;;;;;;7.67;7.33;;;;;17.56;57.68;155468.63;4995806;28;45372;-70
2022/09/21 08:07:19;;;;;;;;;7.67;7.33;;;;;17.62;57.35;155483.16;4995358;28;46093;-71
2022/09/21 08:09:48;;;;;;;;;8.00;7.33;;;;;17.67;57.34;155496.38;4977896;28;45500;-70
2022/09/21 08:12:16;;;;;;;;;9.67;6.67;;;;;17.76;57.21;155520.19;4977750;28;45438;-70
2022/09/21 08:14:41;;;;;;;;;9.33;7.67;;;;;17.80;56.65;155530.78;4995545;28;45462;-70
2022/09/21 08:17:07;;;;;;;;;8.33;8.33;;;;;17.89;56.33;155553.34;4995074;28;45998;-70
2022/09/21 08:19:32;;;;;;;;;14.33;9.00;;;;;18.07;56.04;154197.53;4977654;28;45468;-71
2022/09/21 08:21:58;;;;;;;;;7.00;7.00;;;;;18.22;55.90;154235.59;4995523;28;45364;-70
2022/09/21 08:24:25;;;;;;;;;10.00;10.00;;;;;18.34;55.65;155669.78;4995495;28;45481;-70
2022/09/21 08:26:51;;;;;;;;;9.67;7.67;;;;;18.40;54.81;119779.19;4995271;28;45406;-70
2022/09/21 08:29:16;;;;;;;;;7.67;6.67;;;;;18.51;55.44;138241.28;4995044;28;45357;-70
2022/09/21 08:31:42;;;;;;;;;5.33;5.33;;;;;18.59;55.19;144540.72;4995222;28;45633;-70
2022/09/21 08:34:07;;;;;;;;;7.33;5.00;;;;;18.69;54.95;142119.63;4995499;28;45343;-70
2022/09/21 08:36:33;;;;;;;;;7.67;6.67;;;;;18.75;54.15;25583.38;4994678;28;47394;-70
2022/09/21 08:38:58;;;;;;;;;6.33;6.33;;;;;18.77;54.60;63352.66;4987681;28;45402;-70
2022/09/21 08:41:57;;;;;;;;;16.00;9.00;;;;;18.84;54.41;58599.56;4994945;28;45348;-70
2022/09/21 08:44:27;;;;;;;;;10.33;7.67;;;;;18.94;54.19;64441.34;4915674;28;45602;-75
2022/09/21 08:47:25;;;;;;;;;11.67;9.67;;;;;19.03;54.25;51252.59;4914704;28;47176;-75
2022/09/21 08:49:56;;;;;;;;;11.33;8.00;;;;;19.15;54.05;27482.16;4914907;28;45361;-75
2022/09/21 08:52:23;;;;;;;;;7.00;7.00;;;;;19.23;53.64;7607.22;4915217;28;45489;-75
2022/09/21 08:54:52;;;;;;;;;6.33;5.00;;;;;19.30;53.35;358.53;4915587;28;45373;-75
2022/09/21 08:57:18;;;;;;;;;6.67;6.00;;;;;19.35;53.99;13902.91;4914525;28;46312;-75
2022/09/21 08:59:46;;;;;;;;;10.33;6.67;;;;;19.48;53.23;-18640.59;4914933;28;45508;-75
2022/09/21 09:02:21;;;;;;;;;7.67;6.67;;;;;19.54;52.50;-19729.88;4914940;28;45424;-75
2022/09/21 09:05:25;;;;;;;;;9.00;7.00;;;;;19.65;52.69;-19732.53;4915590;28;45535;-75
2022/09/21 09:07:54;;;;;;;;;6.00;6.00;;;;;19.76;51.89;-19735.59;4936366;28;46778;-75
2022/09/21 09:10:47;;;;;;;;;7.00;6.00;;;;;19.89;51.90;-19738.94;4936516;28;45464;-75
2022/09/21 09:13:15;;;;;;;;;9.00;6.67;;;;;19.96;51.70;-19740.81;4936856;28;45467;-75
2022/09/21 09:16:14;;;;;;;;;5.33;5.33;;;;;20.10;50.93;-19744.41;4936680;28;45525;-75
2022/09/21 09:18:50;;;;;;;;;5.00;3.33;;;;;20.21;50.68;-19747.34;4878976;29;45603;-75
2022/09/21 09:21:40;;;;;;;;;5.33;5.33;;;;;20.32;50.07;-19750.00;4913110;28;45538;-75
2022/09/21 09:24:38;;;;;;;;;7.00;6.00;;;;;20.44;49.61;-19753.22;4955789;28;45401;-75
2022/09/21 09:27:40;;;;;;;;;9.67;6.00;;;;;20.64;49.82;-19758.41;4927259;28;45364;-75
2022/09/21 09:30:11;;;;;;;;;6.00;6.00;;;;;20.94;49.40;-19766.28;4938430;28;45489;-75
2022/09/21 09:32:52;;;;;;;;;6.00;5.00;;;;;21.14;49.23;-19771.47;4941767;28;45430;-75
2022/09/21 09:35:26;;;;;;;;;5.67;4.00;;;;;21.84;47.87;-19789.72;4942305;28;45465;-75
2022/09/21 09:37:57;;;;;;;;;8.67;5.33;;;;;22.80;46.67;-19814.56;4945972;28;45493;-75
2022/09/21 09:40:39;;;;;;;;;4.00;4.00;;;;;24.27;43.58;-19852.69;4943210;28;46304;-76
2022/09/21 09:43:23;;;;;;;;;5.33;5.33;;;;;26.36;41.18;-19906.72;4953685;28;45544;-75
2022/09/21 09:46:02;;;;;;;;;4.67;4.67;;;;;27.94;38.38;-19947.41;4885805;28;45385;-76
2022/09/21 09:48:34;;;;;;;;;3.67;3.00;;;;;29.32;36.30;-19983.00;4908724;28;45416;-76
2022/09/21 09:50:59;;;;;;;;;3.67;3.33;;;;;30.35;34.33;-20009.44;4905581;28;45474;-76
2022/09/21 09:53:26;;;;;;;;;3.67;3.67;;;;;31.39;33.30;-20033.97;4894233;28;46146;-76
2022/09/21 09:55:54;;;;;;;;;6.00;3.00;;;;;32.42;32.03;-18347.59;4976266;28;45370;-76
2022/09/21 09:58:51;;;;;;;;;3.00;3.00;;;;;33.46;30.61;-15281.31;4994436;28;45357;-76
2022/09/21 10:01:38;;;;;;;;;6.67;3.33;;;;;34.60;29.10;-10481.50;4994013;28;46093;-77
2022/09/21 10:04:07;;;;;;;;;4.00;3.00;;;;;35.43;27.30;-6002.97;4980950;28;45425;-73
2022/09/21 10:06:33;;;;;;;;;3.00;3.00;;;;;36.11;26.65;-2546.28;4993837;28;45345;-73
2022/09/21 10:08:58;;;;;;;;;3.67;3.00;;;;;36.60;26.10;919.44;4993989;28;45400;-73
2022/09/21 10:11:35;;;;;;;;;3.00;3.00;;;;;36.87;25.21;4737.88;4993855;28;45392;-74
2022/09/21 10:14:12;;;;;;;;;1.33;1.33;;;;;37.13;24.51;9606.00;4972859;28;45468;-73
2022/09/21 10:16:40;;;;;;;;;3.00;2.00;;;;;37.37;23.85;15528.78;4968415;28;45309;-77
2022/09/21 10:19:15;;;;;;;;;3.00;1.67;;;;;37.67;24.20;17280.78;4994137;28;45423;-73
2022/09/21 10:21:45;;;;;;;;;3.67;3.67;;;;;38.13;23.59;20544.06;4972686;28;47658;-74
2022/09/21 10:24:21;;;;;;;;;3.67;3.00;;;;;38.46;22.95;24986.41;4991627;28;45535;-76
2022/09/21 10:26:47;;;;;;;;;2.00;2.00;;;;;38.84;22.44;26103.13;4993823;28;45329;-76
2022/09/21 10:29:30;;;;;;;;;2.00;2.00;;;;;39.10;22.73;29405.53;4993893;28;45508;-76
2022/09/21 10:32:16;;;;;;;;;5.00;5.00;;;;;39.39;22.04;33554.91;4975739;28;48302;-76
2022/09/21 10:35:11;;;;;;;;;1.00;1.00;;;;;39.48;22.12;35513.59;4991399;28;45402;-73
2022/09/21 10:37:41;;;;;;;;;2.33;1.00;;;;;39.72;21.42;39351.72;4978419;28;45309;-74
2022/09/21 10:40:16;;;;;;;;;0.00;0.00;;;;;39.86;20.78;41684.88;4993704;28;45344;-74
2022/09/21 10:42:42;;;;;;;;;1.00;1.00;;;;;39.85;20.34;44826.75;4993235;28;47199;-74
2022/09/21 10:45:23;;;;;;;;;2.00;2.00;;;;;40.04;20.11;45741.22;4993480;28;45318;-74
2022/09/21 10:47:55;;;;;;;;;2.00;0.67;;;;;40.18;19.52;48171.28;4993348;28;45429;-73
2022/09/21 10:50:40;;;;;;;;;1.00;1.00;;;;;40.12;19.54;49053.84;4993514;28;45553;-74
2022/09/21 10:53:09;;;;;;;;;1.33;1.33;;;;;39.97;19.85;51277.75;4974946;28;45567;-74
2022/09/21 10:55:40;;;;;;;;;3.00;2.00;;;;;38.84;20.16;54267.06;4993148;28;45400;-74
2022/09/21 10:58:10;;;;;;;;;2.00;2.00;;;;;37.89;20.28;55547.66;4979039;28;45467;-73
2022/09/21 11:00:45;;;;;;;;;1.00;1.00;;;;;37.57;20.26;56491.78;4979052;28;45408;-76
2022/09/21 11:03:34;;;;;;;;;1.33;1.33;;;;;37.10;21.54;57074.44;4996176;28;47354;-76
2022/09/21 11:06:07;;;;;;;;;1.00;1.00;;;;;37.09;20.83;57194.44;4984883;28;45288;-74
2022/09/21 11:08:43;;;;;;;;;1.00;1.00;;;;;36.78;21.08;58244.59;4976658;28;45420;-74
2022/09/21 11:11:34;;;;;;;;;3.25;1.50;;;;;35.70;21.95;59487.31;4996768;28;45389;-74
2022/09/21 11:14:11;;;;;;;;;2.00;2.00;;;;;35.60;21.90;59117.09;4996067;28;46200;-73
2022/09/21 11:16:53;;;;;;;;;2.00;2.00;;;;;34.84;22.48;60394.13;4996193;28;45407;-73
2022/09/21 11:19:42;;;;;;;;;2.25;2.00;;;;;33.89;22.87;61206.38;4982572;28;45375;-73
2022/09/21 11:22:18;;;;;;;;;2.67;2.67;;;;;32.77;23.46;62155.50;4996158;28;45416;-73
2022/09/21 11:25:06;;;;;;;;;2.50;2.50;;;;;32.16;24.82;61748.44;4995842;28;46397;-73
2022/09/21 11:27:39;;;;;;;;;3.25;1.75;;;;;32.24;24.64;61436.78;4996051;28;45482;-76
2022/09/21 11:30:13;;;;;;;;;1.50;1.50;;;;;31.52;25.18;62189.25;4996196;28;45357;-76
2022/09/21 11:33:06;;;;;;;;;3.00;1.25;;;;;31.38;25.78;61378.19;4996070;28;45436;-76
2022/09/21 11:35:46;;;;;;;;;1.00;1.00;;;;;31.57;25.20;61258.56;4995309;28;46551;-76
2022/09/21 11:38:26;;;;;;;;;2.00;2.00;;;;;31.63;25.07;61472.28;4995809;28;45455;-75
2022/09/21 11:41:05;;;;;;;;;1.00;1.00;;;;;31.73;24.86;61479.59;4995856;28;45423;-75
2022/09/21 11:43:51;;;;;;;;;2.00;2.00;;;;;31.98;24.90;61286.50;4996270;28;45604;-77
2022/09/21 11:46:34;;;;;;;;;1.00;1.00;;;;;32.19;24.47;61092.84;4995810;28;45432;-76